SBI115 UNNT-UWWW
Flight info
| Callsign | SBI115 |
|---|---|
| Flight time | 3h 4m |
| Altitude | 36000 |
| Route | OGAMA1K OGAMA A308 OSNAB G825 DORON A487 OZGEL L158 LANTO T759 EKRIM T173 NALUS NALUS2G |
| Aircraft | E170/M-SDE3GILORVW/S |
Departure
| Time | 2025-10-08 01:40 |
|---|---|
| Airport | Novosibirsk Tolmachevo Airport (UNNT) |
Arrival
| Time | 2025-10-08 04:44 |
|---|---|
| Airport | Kurumoch International Airport (UWWW) |
| Time | Latitude | Longitude | Altitude | Speed | Heading |
|---|---|---|---|---|---|
| 2025-10-08 01:09 | 55.01034 | 82.66836 | 371 ft | 0 kts | 171° |
| 2025-10-08 01:31 | 55.01091 | 82.66840 | 371 ft | 3 kts | 211° |
| 2025-10-08 01:31 | 55.01098 | 82.66865 | 371 ft | 3 kts | 278° |
| 2025-10-08 01:35 | 55.01102 | 82.66811 | 371 ft | 7 kts | 272° |
| 2025-10-08 01:36 | 55.01104 | 82.66668 | 371 ft | 7 kts | 322° |
| 2025-10-08 01:36 | 55.01231 | 82.66629 | 371 ft | 12 kts | 351° |
| 2025-10-08 01:37 | 55.01256 | 82.66623 | 371 ft | 0 kts | 351° |
| 2025-10-08 01:37 | 55.01280 | 82.66616 | 371 ft | 4 kts | 351° |
| 2025-10-08 01:38 | 55.01360 | 82.66595 | 372 ft | 0 kts | 351° |
| 2025-10-08 01:38 | 55.01374 | 82.66488 | 372 ft | 10 kts | 261° |
| 2025-10-08 01:39 | 55.01209 | 82.64690 | 374 ft | 145 kts | 261° |
| 2025-10-08 01:39 | 55.00895 | 82.60954 | 2014 ft | 158 kts | 263° |
| 2025-10-08 01:40 | 55.00603 | 82.56983 | 3970 ft | 168 kts | 262° |
| 2025-10-08 01:40 | 55.00456 | 82.54907 | 4888 ft | 178 kts | 263° |
| 2025-10-08 01:41 | 55.01551 | 82.50664 | 5585 ft | 220 kts | 318° |
| 2025-10-08 01:41 | 55.03986 | 82.47207 | 5727 ft | 231 kts | 321° |
| 2025-10-08 01:42 | 55.06498 | 82.43703 | 5945 ft | 237 kts | 320° |
| 2025-10-08 01:42 | 55.10377 | 82.37220 | 7099 ft | 266 kts | 315° |
| 2025-10-08 01:43 | 55.13013 | 82.32643 | 8185 ft | 268 kts | 315° |
| 2025-10-08 01:43 | 55.15672 | 82.28023 | 9244 ft | 271 kts | 315° |
| 2025-10-08 01:44 | 55.16993 | 82.25725 | 9761 ft | 272 kts | 315° |
| 2025-10-08 01:44 | 55.19699 | 82.20817 | 10225 ft | 293 kts | 307° |
| 2025-10-08 01:45 | 55.21906 | 82.14745 | 11035 ft | 297 kts | 301° |
| 2025-10-08 01:45 | 55.23887 | 82.08345 | 11883 ft | 300 kts | 295° |
| 2025-10-08 01:46 | 55.27253 | 81.94780 | 13654 ft | 307 kts | 295° |
| 2025-10-08 01:47 | 55.28946 | 81.87866 | 14582 ft | 310 kts | 295° |
| 2025-10-08 01:47 | 55.29800 | 81.84375 | 15037 ft | 312 kts | 295° |
| 2025-10-08 01:47 | 55.31515 | 81.77339 | 15981 ft | 315 kts | 295° |
| 2025-10-08 01:48 | 55.33244 | 81.70230 | 16949 ft | 318 kts | 295° |
| 2025-10-08 01:48 | 55.34985 | 81.63043 | 17948 ft | 322 kts | 294° |
| 2025-10-08 01:49 | 55.36746 | 81.55748 | 18961 ft | 326 kts | 294° |
| 2025-10-08 01:49 | 55.38507 | 81.48422 | 19895 ft | 329 kts | 295° |
| 2025-10-08 01:50 | 55.41200 | 81.37239 | 21407 ft | 333 kts | 295° |
| 2025-10-08 01:50 | 55.42104 | 81.33470 | 21925 ft | 335 kts | 295° |
| 2025-10-08 01:51 | 55.43927 | 81.25855 | 22951 ft | 339 kts | 295° |
| 2025-10-08 01:51 | 55.45740 | 81.18108 | 24004 ft | 344 kts | 293° |
| 2025-10-08 01:52 | 55.47320 | 81.10073 | 24890 ft | 350 kts | 288° |
| 2025-10-08 01:52 | 55.48520 | 81.01704 | 25778 ft | 354 kts | 287° |
| 2025-10-08 01:54 | 55.53226 | 80.67262 | 28905 ft | 368 kts | 287° |
| 2025-10-08 01:56 | 55.57451 | 80.35676 | 30944 ft | 381 kts | 286° |
| 2025-10-08 01:58 | 55.62753 | 79.94725 | 33725 ft | 380 kts | 284° |
| 2025-10-08 02:00 | 55.64107 | 79.62032 | 34450 ft | 388 kts | 277° |
| 2025-10-08 02:02 | 55.65041 | 79.19218 | 34446 ft | 387 kts | 276° |
| 2025-10-08 02:04 | 55.65749 | 78.81066 | 34439 ft | 388 kts | 276° |
| 2025-10-08 02:06 | 55.66339 | 78.42878 | 34430 ft | 388 kts | 276° |
| 2025-10-08 02:08 | 55.66812 | 78.04706 | 34422 ft | 388 kts | 276° |
| 2025-10-08 02:10 | 55.67196 | 77.66451 | 34423 ft | 388 kts | 276° |
| 2025-10-08 02:12 | 55.67462 | 77.28254 | 34398 ft | 389 kts | 276° |
| 2025-10-08 02:14 | 55.67609 | 76.89931 | 34391 ft | 389 kts | 276° |
| 2025-10-08 02:16 | 55.67636 | 76.51618 | 34381 ft | 390 kts | 276° |
| 2025-10-08 02:19 | 55.67524 | 76.08358 | 34363 ft | 390 kts | 276° |
| 2025-10-08 02:20 | 55.67343 | 75.76340 | 34360 ft | 391 kts | 276° |
| 2025-10-08 02:22 | 55.66546 | 75.37697 | 34363 ft | 394 kts | 274° |
| 2025-10-08 02:24 | 55.65291 | 74.98922 | 34351 ft | 395 kts | 274° |
| 2025-10-08 02:26 | 55.63919 | 74.60150 | 34344 ft | 395 kts | 274° |
| 2025-10-08 02:28 | 55.62420 | 74.21234 | 34341 ft | 397 kts | 274° |
| 2025-10-08 02:30 | 55.60790 | 73.82192 | 34331 ft | 398 kts | 273° |
| 2025-10-08 02:32 | 55.61379 | 73.43667 | 34327 ft | 390 kts | 284° |
| 2025-10-08 02:34 | 55.63392 | 73.05331 | 34332 ft | 396 kts | 278° |
| 2025-10-08 02:36 | 55.63261 | 72.71150 | 34328 ft | 398 kts | 277° |
| 2025-10-08 02:38 | 55.62934 | 72.26979 | 34324 ft | 399 kts | 277° |
| 2025-10-08 02:40 | 55.62510 | 71.87654 | 34325 ft | 401 kts | 276° |
| 2025-10-08 02:42 | 55.61957 | 71.48172 | 34332 ft | 402 kts | 276° |
| 2025-10-08 02:44 | 55.61283 | 71.08583 | 34333 ft | 403 kts | 276° |
| 2025-10-08 02:46 | 55.60495 | 70.68983 | 34332 ft | 404 kts | 275° |
| 2025-10-08 02:48 | 55.59577 | 70.29291 | 34334 ft | 405 kts | 275° |
| 2025-10-08 02:50 | 55.58525 | 69.89444 | 34331 ft | 406 kts | 274° |
| 2025-10-08 02:52 | 55.57497 | 69.54567 | 34339 ft | 407 kts | 274° |
| 2025-10-08 02:54 | 55.56248 | 69.09618 | 34345 ft | 407 kts | 275° |
| 2025-10-08 02:56 | 55.55793 | 68.74579 | 34351 ft | 408 kts | 275° |
| 2025-10-08 03:00 | 55.54337 | 67.89259 | 34363 ft | 409 kts | 274° |
| 2025-10-08 03:03 | 55.53562 | 67.44217 | 34370 ft | 410 kts | 273° |
| 2025-10-08 03:04 | 55.52840 | 67.08956 | 34372 ft | 410 kts | 273° |
| 2025-10-08 03:06 | 55.51891 | 66.68705 | 34370 ft | 411 kts | 272° |
| 2025-10-08 03:08 | 55.50768 | 66.28355 | 34366 ft | 412 kts | 271° |
| 2025-10-08 03:10 | 55.49397 | 65.89600 | 34367 ft | 413 kts | 271° |
| 2025-10-08 03:12 | 55.47833 | 65.49069 | 34370 ft | 415 kts | 270° |
| 2025-10-08 03:14 | 55.47615 | 65.08557 | 34364 ft | 414 kts | 274° |
| 2025-10-08 03:16 | 55.47614 | 64.73065 | 34355 ft | 415 kts | 273° |
| 2025-10-08 03:19 | 55.47503 | 64.22048 | 34363 ft | 417 kts | 273° |
| 2025-10-08 03:20 | 55.47381 | 63.86274 | 34356 ft | 418 kts | 273° |
| 2025-10-08 03:23 | 55.47079 | 63.40014 | 34352 ft | 420 kts | 272° |
| 2025-10-08 03:24 | 55.46719 | 63.04000 | 34352 ft | 421 kts | 271° |
| 2025-10-08 03:26 | 55.44072 | 62.62789 | 34349 ft | 424 kts | 266° |
| 2025-10-08 03:28 | 55.41143 | 62.21595 | 34345 ft | 424 kts | 265° |
| 2025-10-08 03:30 | 55.38075 | 61.80430 | 34348 ft | 425 kts | 265° |
| 2025-10-08 03:32 | 55.34856 | 61.39227 | 34344 ft | 425 kts | 264° |
| 2025-10-08 03:34 | 55.31501 | 60.98125 | 34361 ft | 425 kts | 264° |
| 2025-10-08 03:36 | 55.28010 | 60.57132 | 34361 ft | 425 kts | 263° |
| 2025-10-08 03:38 | 55.24359 | 60.16186 | 34364 ft | 425 kts | 262° |
| 2025-10-08 03:40 | 55.22276 | 59.80202 | 34358 ft | 424 kts | 266° |
| 2025-10-08 03:42 | 55.16067 | 59.34908 | 34375 ft | 428 kts | 256° |
| 2025-10-08 03:44 | 55.10325 | 58.99984 | 34372 ft | 426 kts | 255° |
| 2025-10-08 03:46 | 55.02841 | 58.55480 | 34372 ft | 424 kts | 255° |
| 2025-10-08 03:48 | 54.96934 | 58.21123 | 34369 ft | 422 kts | 254° |
| 2025-10-08 03:50 | 54.89257 | 57.77369 | 34359 ft | 420 kts | 253° |
| 2025-10-08 03:52 | 54.83184 | 57.43492 | 34350 ft | 419 kts | 253° |
| 2025-10-08 03:54 | 54.75577 | 57.01937 | 34339 ft | 416 kts | 252° |
| 2025-10-08 03:56 | 54.69359 | 56.68698 | 34337 ft | 414 kts | 252° |
| 2025-10-08 03:59 | 54.60394 | 56.21774 | 34332 ft | 410 kts | 251° |
| 2025-10-08 04:00 | 54.54071 | 55.89311 | 34344 ft | 408 kts | 249° |
| 2025-10-08 04:02 | 54.45771 | 55.52987 | 34339 ft | 408 kts | 248° |
| 2025-10-08 04:04 | 54.37309 | 55.16673 | 34325 ft | 409 kts | 248° |
| 2025-10-08 04:06 | 54.28748 | 54.80541 | 34319 ft | 409 kts | 249° |
| 2025-10-08 04:08 | 54.21199 | 54.49166 | 34314 ft | 407 kts | 249° |
| 2025-10-08 04:10 | 54.11407 | 54.09135 | 34317 ft | 405 kts | 249° |
| 2025-10-08 04:12 | 54.03736 | 53.78323 | 34308 ft | 402 kts | 249° |
| 2025-10-08 04:15 | 53.92745 | 53.34815 | 30188 ft | 401 kts | 249° |
| 2025-10-08 04:16 | 53.86273 | 53.09552 | 25185 ft | 376 kts | 249° |
| 2025-10-08 04:17 | 53.83429 | 52.97434 | 22884 ft | 363 kts | 255° |
| 2025-10-08 04:17 | 53.82125 | 52.89269 | 21289 ft | 355 kts | 260° |
| 2025-10-08 04:18 | 53.80826 | 52.77031 | 19058 ft | 348 kts | 261° |
| 2025-10-08 04:18 | 53.80411 | 52.73010 | 18313 ft | 347 kts | 260° |
| 2025-10-08 04:19 | 53.79588 | 52.65093 | 16837 ft | 341 kts | 260° |
| 2025-10-08 04:19 | 53.78768 | 52.57265 | 15457 ft | 335 kts | 260° |
| 2025-10-08 04:20 | 53.77956 | 52.49568 | 14149 ft | 330 kts | 259° |
| 2025-10-08 04:20 | 53.77150 | 52.41979 | 12770 ft | 324 kts | 259° |
| 2025-10-08 04:21 | 53.76356 | 52.34545 | 11484 ft | 319 kts | 259° |
| 2025-10-08 04:21 | 53.75594 | 52.27455 | 10938 ft | 294 kts | 259° |
| 2025-10-08 04:22 | 53.75233 | 52.24118 | 10691 ft | 283 kts | 259° |
| 2025-10-08 04:22 | 53.74184 | 52.14452 | 9329 ft | 277 kts | 258° |
| 2025-10-08 04:23 | 53.73488 | 52.08080 | 8457 ft | 274 kts | 258° |
| 2025-10-08 04:23 | 53.72783 | 52.01657 | 8312 ft | 274 kts | 258° |
| 2025-10-08 04:24 | 53.72089 | 51.95370 | 8287 ft | 273 kts | 258° |
| 2025-10-08 04:24 | 53.71390 | 51.89067 | 8274 ft | 273 kts | 258° |
| 2025-10-08 04:25 | 53.70687 | 51.82766 | 8285 ft | 273 kts | 258° |
| 2025-10-08 04:25 | 53.69982 | 51.76467 | 8280 ft | 273 kts | 258° |
| 2025-10-08 04:26 | 53.69272 | 51.70169 | 8277 ft | 273 kts | 258° |
| 2025-10-08 04:26 | 53.68560 | 51.63875 | 8281 ft | 273 kts | 258° |
| 2025-10-08 04:27 | 53.67843 | 51.57581 | 8271 ft | 273 kts | 258° |
| 2025-10-08 04:27 | 53.66922 | 51.51416 | 8280 ft | 273 kts | 252° |
| 2025-10-08 04:28 | 53.65647 | 51.45411 | 8279 ft | 272 kts | 246° |
| 2025-10-08 04:28 | 53.64166 | 51.39551 | 8273 ft | 271 kts | 246° |
| 2025-10-08 04:29 | 53.62672 | 51.33699 | 8283 ft | 272 kts | 246° |
| 2025-10-08 04:30 | 53.60426 | 51.24923 | 8272 ft | 272 kts | 246° |
| 2025-10-08 04:30 | 53.59676 | 51.22000 | 8283 ft | 272 kts | 246° |
| 2025-10-08 04:30 | 53.58176 | 51.16157 | 8274 ft | 272 kts | 246° |
| 2025-10-08 04:31 | 53.56670 | 51.10321 | 8276 ft | 272 kts | 246° |
| 2025-10-08 04:31 | 53.55176 | 51.04510 | 8273 ft | 272 kts | 246° |
| 2025-10-08 04:32 | 53.54423 | 51.01594 | 8272 ft | 272 kts | 246° |
| 2025-10-08 04:32 | 53.52167 | 50.92866 | 7355 ft | 269 kts | 245° |
| 2025-10-08 04:33 | 53.51420 | 50.89986 | 6936 ft | 268 kts | 245° |
| 2025-10-08 04:33 | 53.49935 | 50.84290 | 6080 ft | 265 kts | 246° |
| 2025-10-08 04:34 | 53.47741 | 50.75851 | 4874 ft | 261 kts | 246° |
| 2025-10-08 04:34 | 53.46293 | 50.70322 | 4125 ft | 260 kts | 246° |
| 2025-10-08 04:35 | 53.44831 | 50.64735 | 4041 ft | 260 kts | 246° |
| 2025-10-08 04:35 | 53.43375 | 50.59200 | 4003 ft | 252 kts | 246° |
| 2025-10-08 04:36 | 53.42027 | 50.54076 | 3988 ft | 231 kts | 246° |
| 2025-10-08 04:36 | 53.40738 | 50.49198 | 4015 ft | 229 kts | 246° |
| 2025-10-08 04:37 | 53.40161 | 50.46704 | 4003 ft | 230 kts | 248° |
| 2025-10-08 04:37 | 53.38431 | 50.39223 | 3449 ft | 227 kts | 250° |
| 2025-10-08 04:38 | 53.37457 | 50.34598 | 2844 ft | 198 kts | 250° |
| 2025-10-08 04:38 | 53.36563 | 50.30374 | 2528 ft | 189 kts | 250° |
| 2025-10-08 04:39 | 53.36310 | 50.26212 | 2523 ft | 185 kts | 302° |
| 2025-10-08 04:39 | 53.37270 | 50.24959 | 2527 ft | 174 kts | 343° |
| 2025-10-08 04:40 | 53.40800 | 50.23470 | 2107 ft | 173 kts | 342° |
| 2025-10-08 04:40 | 53.41932 | 50.22777 | 1884 ft | 174 kts | 341° |
| 2025-10-08 04:41 | 53.44060 | 50.21512 | 1428 ft | 147 kts | 342° |
| 2025-10-08 04:41 | 53.46690 | 50.19938 | 929 ft | 129 kts | 341° |
| 2025-10-08 04:42 | 53.48391 | 50.18917 | 648 ft | 130 kts | 340° |
| 2025-10-08 04:42 | 53.50029 | 50.17937 | 436 ft | 108 kts | 340° |
| 2025-10-08 04:43 | 53.51016 | 50.17349 | 434 ft | 57 kts | 340° |
| 2025-10-08 04:43 | 53.51388 | 50.17128 | 447 ft | 13 kts | 340° |
| 2025-10-08 04:44 | 53.51420 | 50.16967 | 434 ft | 13 kts | 242° |
| 2025-10-08 04:44 | 53.51371 | 50.16813 | 439 ft | 17 kts | 242° |
| 2025-10-08 04:45 | 53.51250 | 50.16440 | 438 ft | 19 kts | 241° |
| 2025-10-08 04:45 | 53.51141 | 50.16043 | 444 ft | 4 kts | 308° |
| 2025-10-08 04:46 | 53.51185 | 50.15998 | 444 ft | 0 kts | 333° |
| 2025-10-08 04:46 | 53.51187 | 50.15996 | 444 ft | 0 kts | 333° |